sensor_id;sensor_type;location;lat;lon;timestamp;P1;durP1;ratioP1;P2;durP2;ratioP2
51578;SDS011;47998;53.242;6.386;2023-03-01T00:02:04;119.53;;;15.43;;
51578;SDS011;47998;53.242;6.386;2023-03-01T00:04:30;60.13;;;12.20;;
51578;SDS011;47998;53.242;6.386;2023-03-01T00:06:56;48.17;;;13.23;;
51578;SDS011;47998;53.242;6.386;2023-03-01T00:09:22;311.07;;;23.20;;
51578;SDS011;47998;53.242;6.386;2023-03-01T00:11:48;197.03;;;17.40;;
51578;SDS011;47998;53.242;6.386;2023-03-01T00:14:14;167.20;;;15.37;;
51578;SDS011;47998;53.242;6.386;2023-03-01T00:16:42;75.93;;;12.67;;
51578;SDS011;47998;53.242;6.386;2023-03-01T00:19:11;87.53;;;15.17;;
51578;SDS011;47998;53.242;6.386;2023-03-01T00:21:40;124.50;;;14.23;;
51578;SDS011;47998;53.242;6.386;2023-03-01T00:24:06;255.07;;;23.33;;
51578;SDS011;47998;53.242;6.386;2023-03-01T00:26:32;254.47;;;22.03;;
51578;SDS011;47998;53.242;6.386;2023-03-01T00:28:58;283.43;;;23.13;;
51578;SDS011;47998;53.242;6.386;2023-03-01T00:31:26;167.60;;;18.23;;
51578;SDS011;47998;53.242;6.386;2023-03-01T00:33:54;314.57;;;23.67;;
51578;SDS011;47998;53.242;6.386;2023-03-01T00:36:23;215.80;;;20.63;;
51578;SDS011;47998;53.242;6.386;2023-03-01T00:38:50;122.53;;;14.93;;
51578;SDS011;47998;53.242;6.386;2023-03-01T00:41:17;245.70;;;20.17;;
51578;SDS011;47998;53.242;6.386;2023-03-01T00:43:44;256.83;;;24.00;;
51578;SDS011;47998;53.242;6.386;2023-03-01T00:46:14;522.03;;;34.27;;
51578;SDS011;47998;53.242;6.386;2023-03-01T00:48:41;394.23;;;30.00;;
51578;SDS011;47998;53.242;6.386;2023-03-01T00:51:10;290.83;;;26.20;;
51578;SDS011;47998;53.242;6.386;2023-03-01T00:56:07;86.10;;;17.33;;
51578;SDS011;47998;53.242;6.386;2023-03-01T00:58:35;77.97;;;16.63;;
51578;SDS011;47998;53.242;6.386;2023-03-01T01:01:01;188.67;;;20.87;;
51578;SDS011;47998;53.242;6.386;2023-03-01T01:03:43;169.50;;;21.97;;
51578;SDS011;47998;53.242;6.386;2023-03-01T01:06:26;188.53;;;22.97;;
51578;SDS011;47998;53.242;6.386;2023-03-01T01:08:55;189.97;;;21.07;;
51578;SDS011;47998;53.242;6.386;2023-03-01T01:11:22;155.67;;;17.67;;
51578;SDS011;47998;53.242;6.386;2023-03-01T01:13:49;268.47;;;21.43;;
51578;SDS011;47998;53.242;6.386;2023-03-01T01:16:17;194.13;;;16.27;;
51578;SDS011;47998;53.242;6.386;2023-03-01T01:18:43;186.10;;;18.63;;
51578;SDS011;47998;53.242;6.386;2023-03-01T01:21:11;318.83;;;22.87;;
51578;SDS011;47998;53.242;6.386;2023-03-01T01:23:39;274.67;;;22.70;;
51578;SDS011;47998;53.242;6.386;2023-03-01T01:26:07;274.50;;;22.23;;
51578;SDS011;47998;53.242;6.386;2023-03-01T01:28:34;216.03;;;20.87;;
51578;SDS011;47998;53.242;6.386;2023-03-01T01:31:01;193.10;;;21.63;;
51578;SDS011;47998;53.242;6.386;2023-03-01T01:33:27;92.77;;;15.73;;
51578;SDS011;47998;53.242;6.386;2023-03-01T01:35:53;205.13;;;22.37;;
51578;SDS011;47998;53.242;6.386;2023-03-01T01:38:19;227.17;;;24.33;;
51578;SDS011;47998;53.242;6.386;2023-03-01T01:40:46;316.93;;;26.70;;
51578;SDS011;47998;53.242;6.386;2023-03-01T01:43:16;303.37;;;24.90;;
51578;SDS011;47998;53.242;6.386;2023-03-01T01:45:43;260.80;;;21.97;;
51578;SDS011;47998;53.242;6.386;2023-03-01T01:48:12;210.43;;;18.93;;
51578;SDS011;47998;53.242;6.386;2023-03-01T01:50:42;482.02;;;28.20;;
51578;SDS011;47998;53.242;6.386;2023-03-01T01:53:14;299.80;;;21.30;;
51578;SDS011;47998;53.242;6.386;2023-03-01T01:55:48;240.30;;;21.03;;
51578;SDS011;47998;53.242;6.386;2023-03-01T01:58:22;253.07;;;20.40;;
51578;SDS011;47998;53.242;6.386;2023-03-01T02:00:51;216.17;;;20.13;;
51578;SDS011;47998;53.242;6.386;2023-03-01T02:03:19;126.93;;;13.83;;
51578;SDS011;47998;53.242;6.386;2023-03-01T02:08:14;118.17;;;16.30;;
51578;SDS011;47998;53.242;6.386;2023-03-01T02:10:46;267.07;;;21.83;;
51578;SDS011;47998;53.242;6.386;2023-03-01T02:13:14;250.50;;;20.90;;
51578;SDS011;47998;53.242;6.386;2023-03-01T02:15:40;328.83;;;24.97;;
51578;SDS011;47998;53.242;6.386;2023-03-01T02:18:09;161.83;;;17.83;;
51578;SDS011;47998;53.242;6.386;2023-03-01T02:20:44;301.50;;;23.23;;
51578;SDS011;47998;53.242;6.386;2023-03-01T02:23:14;373.40;;;24.43;;
51578;SDS011;47998;53.242;6.386;2023-03-01T02:25:46;266.67;;;18.70;;
51578;SDS011;47998;53.242;6.386;2023-03-01T02:30:39;234.60;;;17.33;;
51578;SDS011;47998;53.242;6.386;2023-03-01T02:33:25;191.93;;;16.50;;
51578;SDS011;47998;53.242;6.386;2023-03-01T02:35:51;259.47;;;18.73;;
51578;SDS011;47998;53.242;6.386;2023-03-01T02:38:19;113.53;;;15.77;;
51578;SDS011;47998;53.242;6.386;2023-03-01T02:40:46;113.43;;;15.87;;
51578;SDS011;47998;53.242;6.386;2023-03-01T02:43:14;244.23;;;21.27;;
51578;SDS011;47998;53.242;6.386;2023-03-01T02:45:52;308.93;;;22.37;;
51578;SDS011;47998;53.242;6.386;2023-03-01T02:48:18;286.97;;;24.23;;
51578;SDS011;47998;53.242;6.386;2023-03-01T02:56:06;214.07;;;17.97;;
51578;SDS011;47998;53.242;6.386;2023-03-01T02:58:39;163.53;;;18.60;;
51578;SDS011;47998;53.242;6.386;2023-03-01T03:01:10;90.18;;;17.83;;
51578;SDS011;47998;53.242;6.386;2023-03-01T03:03:41;223.40;;;20.07;;
51578;SDS011;47998;53.242;6.386;2023-03-01T03:06:07;159.07;;;15.40;;
51578;SDS011;47998;53.242;6.386;2023-03-01T03:08:39;86.30;;;17.00;;
51578;SDS011;47998;53.242;6.386;2023-03-01T03:11:05;141.17;;;15.90;;
51578;SDS011;47998;53.242;6.386;2023-03-01T03:13:30;171.20;;;16.30;;
51578;SDS011;47998;53.242;6.386;2023-03-01T03:15:57;159.20;;;15.40;;
51578;SDS011;47998;53.242;6.386;2023-03-01T03:18:23;194.17;;;17.23;;
51578;SDS011;47998;53.242;6.386;2023-03-01T03:20:51;329.93;;;22.27;;
51578;SDS011;47998;53.242;6.386;2023-03-01T03:23:19;365.67;;;23.13;;
51578;SDS011;47998;53.242;6.386;2023-03-01T03:25:47;267.37;;;19.30;;
51578;SDS011;47998;53.242;6.386;2023-03-01T03:28:14;206.23;;;16.67;;
51578;SDS011;47998;53.242;6.386;2023-03-01T03:30:41;465.03;;;27.93;;
51578;SDS011;47998;53.242;6.386;2023-03-01T03:33:07;140.27;;;14.37;;
51578;SDS011;47998;53.242;6.386;2023-03-01T03:35:38;208.03;;;17.10;;
51578;SDS011;47998;53.242;6.386;2023-03-01T03:38:10;115.07;;;13.47;;
51578;SDS011;47998;53.242;6.386;2023-03-01T03:40:59;184.37;;;16.60;;
51578;SDS011;47998;53.242;6.386;2023-03-01T03:43:32;164.87;;;15.63;;
51578;SDS011;47998;53.242;6.386;2023-03-01T03:46:00;163.73;;;15.17;;
51578;SDS011;47998;53.242;6.386;2023-03-01T03:48:26;91.57;;;13.67;;
51578;SDS011;47998;53.242;6.386;2023-03-01T03:50:53;144.57;;;15.43;;
51578;SDS011;47998;53.242;6.386;2023-03-01T03:53:21;98.60;;;14.93;;
51578;SDS011;47998;53.242;6.386;2023-03-01T03:55:49;164.67;;;19.03;;
51578;SDS011;47998;53.242;6.386;2023-03-01T03:58:15;237.70;;;22.83;;
51578;SDS011;47998;53.242;6.386;2023-03-01T04:00:45;152.27;;;20.37;;
51578;SDS011;47998;53.242;6.386;2023-03-01T04:03:13;310.90;;;24.57;;
51578;SDS011;47998;53.242;6.386;2023-03-01T04:05:40;367.67;;;28.73;;
51578;SDS011;47998;53.242;6.386;2023-03-01T04:08:06;258.03;;;23.50;;
51578;SDS011;47998;53.242;6.386;2023-03-01T04:10:36;135.20;;;18.03;;
51578;SDS011;47998;53.242;6.386;2023-03-01T04:13:02;198.00;;;21.63;;
51578;SDS011;47998;53.242;6.386;2023-03-01T04:15:33;299.13;;;23.03;;
51578;SDS011;47998;53.242;6.386;2023-03-01T04:18:00;125.63;;;16.93;;
51578;SDS011;47998;53.242;6.386;2023-03-01T04:20:28;124.37;;;17.33;;
51578;SDS011;47998;53.242;6.386;2023-03-01T04:22:59;60.63;;;16.83;;
51578;SDS011;47998;53.242;6.386;2023-03-01T04:25:47;39.60;;;15.00;;
51578;SDS011;47998;53.242;6.386;2023-03-01T04:28:24;74.47;;;16.77;;
51578;SDS011;47998;53.242;6.386;2023-03-01T04:30:55;157.57;;;18.50;;
51578;SDS011;47998;53.242;6.386;2023-03-01T04:33:23;144.73;;;17.97;;
51578;SDS011;47998;53.242;6.386;2023-03-01T04:35:50;89.63;;;14.33;;
51578;SDS011;47998;53.242;6.386;2023-03-01T04:38:16;117.57;;;17.47;;
51578;SDS011;47998;53.242;6.386;2023-03-01T04:40:43;88.13;;;15.40;;
51578;SDS011;47998;53.242;6.386;2023-03-01T04:43:09;100.37;;;15.03;;
51578;SDS011;47998;53.242;6.386;2023-03-01T04:45:36;76.17;;;15.07;;
51578;SDS011;47998;53.242;6.386;2023-03-01T04:48:02;73.80;;;16.23;;
51578;SDS011;47998;53.242;6.386;2023-03-01T04:50:29;33.13;;;13.83;;
51578;SDS011;47998;53.242;6.386;2023-03-01T04:52:55;29.50;;;12.53;;
51578;SDS011;47998;53.242;6.386;2023-03-01T04:55:25;30.23;;;13.20;;
51578;SDS011;47998;53.242;6.386;2023-03-01T04:57:51;24.40;;;12.97;;
51578;SDS011;47998;53.242;6.386;2023-03-01T05:00:18;30.87;;;12.73;;
51578;SDS011;47998;53.242;6.386;2023-03-01T05:02:47;48.67;;;14.50;;
51578;SDS011;47998;53.242;6.386;2023-03-01T05:05:28;36.93;;;14.57;;
51578;SDS011;47998;53.242;6.386;2023-03-01T05:07:58;35.97;;;13.53;;
51578;SDS011;47998;53.242;6.386;2023-03-01T05:10:27;23.47;;;12.37;;
51578;SDS011;47998;53.242;6.386;2023-03-01T05:12:57;26.23;;;12.53;;
51578;SDS011;47998;53.242;6.386;2023-03-01T05:15:24;28.87;;;12.73;;
51578;SDS011;47998;53.242;6.386;2023-03-01T05:17:58;23.73;;;12.50;;
51578;SDS011;47998;53.242;6.386;2023-03-01T05:20:28;20.87;;;11.93;;
51578;SDS011;47998;53.242;6.386;2023-03-01T05:22:56;24.43;;;11.97;;
51578;SDS011;47998;53.242;6.386;2023-03-01T05:25:24;25.53;;;12.10;;
51578;SDS011;47998;53.242;6.386;2023-03-01T05:27:50;23.70;;;12.33;;
51578;SDS011;47998;53.242;6.386;2023-03-01T05:30:16;22.57;;;12.13;;
51578;SDS011;47998;53.242;6.386;2023-03-01T05:32:44;20.50;;;11.83;;
51578;SDS011;47998;53.242;6.386;2023-03-01T05:35:12;23.53;;;11.93;;
51578;SDS011;47998;53.242;6.386;2023-03-01T05:37:42;23.07;;;11.90;;
51578;SDS011;47998;53.242;6.386;2023-03-01T05:40:15;22.90;;;12.07;;
51578;SDS011;47998;53.242;6.386;2023-03-01T05:42:47;27.40;;;12.13;;
51578;SDS011;47998;53.242;6.386;2023-03-01T05:45:20;31.20;;;12.07;;
51578;SDS011;47998;53.242;6.386;2023-03-01T05:47:48;24.17;;;12.17;;
51578;SDS011;47998;53.242;6.386;2023-03-01T05:50:22;22.33;;;12.37;;
51578;SDS011;47998;53.242;6.386;2023-03-01T05:52:49;22.13;;;12.50;;
51578;SDS011;47998;53.242;6.386;2023-03-01T05:55:18;21.67;;;12.83;;
51578;SDS011;47998;53.242;6.386;2023-03-01T05:57:48;23.80;;;12.23;;
51578;SDS011;47998;53.242;6.386;2023-03-01T06:00:15;17.93;;;11.13;;
51578;SDS011;47998;53.242;6.386;2023-03-01T06:02:43;26.97;;;12.37;;
51578;SDS011;47998;53.242;6.386;2023-03-01T06:05:09;48.57;;;14.17;;
51578;SDS011;47998;53.242;6.386;2023-03-01T06:07:36;49.67;;;13.83;;
51578;SDS011;47998;53.242;6.386;2023-03-01T06:10:06;31.30;;;13.13;;
51578;SDS011;47998;53.242;6.386;2023-03-01T06:12:33;25.07;;;12.53;;
51578;SDS011;47998;53.242;6.386;2023-03-01T06:15:00;36.37;;;14.43;;
51578;SDS011;47998;53.242;6.386;2023-03-01T06:17:30;97.83;;;17.00;;
51578;SDS011;47998;53.242;6.386;2023-03-01T06:20:19;84.27;;;17.50;;
51578;SDS011;47998;53.242;6.386;2023-03-01T06:22:46;210.90;;;19.63;;
51578;SDS011;47998;53.242;6.386;2023-03-01T06:25:16;148.90;;;17.90;;
51578;SDS011;47998;53.242;6.386;2023-03-01T06:27:44;82.83;;;19.63;;
51578;SDS011;47998;53.242;6.386;2023-03-01T06:30:11;80.20;;;16.80;;
51578;SDS011;47998;53.242;6.386;2023-03-01T06:32:39;34.57;;;14.90;;
51578;SDS011;47998;53.242;6.386;2023-03-01T06:35:09;40.17;;;15.93;;
51578;SDS011;47998;53.242;6.386;2023-03-01T06:37:39;31.03;;;14.67;;
51578;SDS011;47998;53.242;6.386;2023-03-01T06:40:06;43.07;;;17.33;;
51578;SDS011;47998;53.242;6.386;2023-03-01T06:42:36;35.47;;;14.80;;
51578;SDS011;47998;53.242;6.386;2023-03-01T06:45:06;35.67;;;15.48;;
51578;SDS011;47998;53.242;6.386;2023-03-01T06:47:33;33.93;;;16.20;;
51578;SDS011;47998;53.242;6.386;2023-03-01T06:50:00;37.30;;;17.67;;
51578;SDS011;47998;53.242;6.386;2023-03-01T06:52:26;24.33;;;14.23;;
51578;SDS011;47998;53.242;6.386;2023-03-01T06:54:52;26.97;;;15.63;;
51578;SDS011;47998;53.242;6.386;2023-03-01T06:57:18;24.90;;;14.27;;
51578;SDS011;47998;53.242;6.386;2023-03-01T06:59:44;23.17;;;13.47;;
51578;SDS011;47998;53.242;6.386;2023-03-01T07:02:10;21.23;;;13.70;;
51578;SDS011;47998;53.242;6.386;2023-03-01T07:04:37;25.40;;;13.73;;
51578;SDS011;47998;53.242;6.386;2023-03-01T07:07:03;29.37;;;16.23;;
51578;SDS011;47998;53.242;6.386;2023-03-01T07:09:29;27.53;;;15.83;;
51578;SDS011;47998;53.242;6.386;2023-03-01T07:11:55;29.90;;;15.40;;
51578;SDS011;47998;53.242;6.386;2023-03-01T07:14:22;26.13;;;15.37;;
51578;SDS011;47998;53.242;6.386;2023-03-01T07:16:49;28.27;;;15.57;;
51578;SDS011;47998;53.242;6.386;2023-03-01T07:19:15;29.50;;;15.90;;
51578;SDS011;47998;53.242;6.386;2023-03-01T07:21:41;27.13;;;16.13;;
51578;SDS011;47998;53.242;6.386;2023-03-01T07:24:07;32.30;;;16.13;;
51578;SDS011;47998;53.242;6.386;2023-03-01T07:26:33;30.13;;;16.63;;
51578;SDS011;47998;53.242;6.386;2023-03-01T07:28:59;31.47;;;15.73;;
51578;SDS011;47998;53.242;6.386;2023-03-01T07:31:26;31.63;;;16.97;;
51578;SDS011;47998;53.242;6.386;2023-03-01T07:33:53;31.10;;;18.17;;
51578;SDS011;47998;53.242;6.386;2023-03-01T07:36:19;31.43;;;17.70;;
51578;SDS011;47998;53.242;6.386;2023-03-01T07:38:45;32.70;;;17.33;;
51578;SDS011;47998;53.242;6.386;2023-03-01T07:41:11;31.83;;;16.70;;
51578;SDS011;47998;53.242;6.386;2023-03-01T07:43:37;35.43;;;18.57;;
51578;SDS011;47998;53.242;6.386;2023-03-01T07:46:03;35.23;;;18.80;;
51578;SDS011;47998;53.242;6.386;2023-03-01T07:48:29;34.20;;;17.73;;
51578;SDS011;47998;53.242;6.386;2023-03-01T07:51:00;35.47;;;18.83;;
51578;SDS011;47998;53.242;6.386;2023-03-01T07:53:27;37.53;;;19.10;;
51578;SDS011;47998;53.242;6.386;2023-03-01T07:56:11;38.00;;;19.77;;
51578;SDS011;47998;53.242;6.386;2023-03-01T07:58:39;41.03;;;19.97;;
51578;SDS011;47998;53.242;6.386;2023-03-01T08:01:07;36.80;;;19.30;;
51578;SDS011;47998;53.242;6.386;2023-03-01T08:03:35;40.30;;;20.77;;
51578;SDS011;47998;53.242;6.386;2023-03-01T08:06:03;36.33;;;20.07;;
51578;SDS011;47998;53.242;6.386;2023-03-01T08:08:30;35.83;;;20.00;;
51578;SDS011;47998;53.242;6.386;2023-03-01T08:10:56;34.67;;;20.47;;
51578;SDS011;47998;53.242;6.386;2023-03-01T08:13:23;39.80;;;21.47;;
51578;SDS011;47998;53.242;6.386;2023-03-01T08:15:49;42.50;;;22.30;;
51578;SDS011;47998;53.242;6.386;2023-03-01T08:18:15;40.87;;;22.20;;
51578;SDS011;47998;53.242;6.386;2023-03-01T08:20:42;42.30;;;23.83;;
51578;SDS011;47998;53.242;6.386;2023-03-01T08:23:08;41.63;;;23.50;;
51578;SDS011;47998;53.242;6.386;2023-03-01T08:25:34;51.87;;;27.07;;
51578;SDS011;47998;53.242;6.386;2023-03-01T08:28:00;48.97;;;27.13;;
51578;SDS011;47998;53.242;6.386;2023-03-01T08:30:25;53.77;;;27.57;;
51578;SDS011;47998;53.242;6.386;2023-03-01T08:32:51;50.87;;;26.90;;
51578;SDS011;47998;53.242;6.386;2023-03-01T08:35:17;49.27;;;27.93;;
51578;SDS011;47998;53.242;6.386;2023-03-01T08:37:44;62.47;;;31.93;;
51578;SDS011;47998;53.242;6.386;2023-03-01T08:40:10;53.67;;;29.30;;
51578;SDS011;47998;53.242;6.386;2023-03-01T08:42:39;72.57;;;35.63;;
51578;SDS011;47998;53.242;6.386;2023-03-01T08:45:08;69.20;;;35.27;;
51578;SDS011;47998;53.242;6.386;2023-03-01T08:47:34;68.90;;;34.03;;
51578;SDS011;47998;53.242;6.386;2023-03-01T08:50:00;65.97;;;31.70;;
51578;SDS011;47998;53.242;6.386;2023-03-01T08:52:26;67.00;;;34.77;;
51578;SDS011;47998;53.242;6.386;2023-03-01T08:54:52;76.90;;;36.17;;
51578;SDS011;47998;53.242;6.386;2023-03-01T08:57:18;77.53;;;36.90;;
51578;SDS011;47998;53.242;6.386;2023-03-01T08:59:44;76.30;;;37.30;;
51578;SDS011;47998;53.242;6.386;2023-03-01T09:02:14;83.03;;;40.13;;
51578;SDS011;47998;53.242;6.386;2023-03-01T09:04:41;96.03;;;45.53;;
51578;SDS011;47998;53.242;6.386;2023-03-01T09:07:07;100.83;;;48.17;;
51578;SDS011;47998;53.242;6.386;2023-03-01T09:09:34;101.17;;;49.23;;
51578;SDS011;47998;53.242;6.386;2023-03-01T09:12:00;130.23;;;58.17;;
51578;SDS011;47998;53.242;6.386;2023-03-01T09:14:26;126.63;;;58.47;;
51578;SDS011;47998;53.242;6.386;2023-03-01T09:16:53;123.93;;;62.40;;
51578;SDS011;47998;53.242;6.386;2023-03-01T09:19:19;132.93;;;67.30;;
51578;SDS011;47998;53.242;6.386;2023-03-01T09:21:45;134.80;;;65.43;;
51578;SDS011;47998;53.242;6.386;2023-03-01T09:24:17;146.77;;;67.37;;
51578;SDS011;47998;53.242;6.386;2023-03-01T09:26:45;153.53;;;66.00;;
51578;SDS011;47998;53.242;6.386;2023-03-01T09:29:11;107.28;;;54.20;;
51578;SDS011;47998;53.242;6.386;2023-03-01T09:31:38;124.05;;;57.75;;
51578;SDS011;47998;53.242;6.386;2023-03-01T09:34:04;91.38;;;50.83;;
51578;SDS011;47998;53.242;6.386;2023-03-01T09:36:30;83.20;;;50.30;;
51578;SDS011;47998;53.242;6.386;2023-03-01T09:38:59;61.90;;;41.00;;
51578;SDS011;47998;53.242;6.386;2023-03-01T09:41:38;63.35;;;39.55;;
51578;SDS011;47998;53.242;6.386;2023-03-01T09:46:49;44.58;;;32.22;;
51578;SDS011;47998;53.242;6.386;2023-03-01T09:49:20;47.75;;;31.48;;
51578;SDS011;47998;53.242;6.386;2023-03-01T09:54:54;34.67;;;25.20;;
51578;SDS011;47998;53.242;6.386;2023-03-01T10:02:37;28.60;;;21.63;;
51578;SDS011;47998;53.242;6.386;2023-03-01T10:10:50;18.83;;;16.00;;
51578;SDS011;47998;53.242;6.386;2023-03-01T10:16:19;17.17;;;14.52;;
51578;SDS011;47998;53.242;6.386;2023-03-01T10:19:14;18.92;;;14.25;;
51578;SDS011;47998;53.242;6.386;2023-03-01T10:21:47;16.27;;;12.90;;
51578;SDS011;47998;53.242;6.386;2023-03-01T10:24:16;14.07;;;12.20;;
51578;SDS011;47998;53.242;6.386;2023-03-01T10:26:47;16.15;;;13.90;;
51578;SDS011;47998;53.242;6.386;2023-03-01T10:29:26;15.63;;;13.25;;
51578;SDS011;47998;53.242;6.386;2023-03-01T10:31:58;15.60;;;12.98;;
51578;SDS011;47998;53.242;6.386;2023-03-01T10:34:29;13.93;;;11.77;;
51578;SDS011;47998;53.242;6.386;2023-03-01T10:42:40;19.67;;;11.32;;
51578;SDS011;47998;53.242;6.386;2023-03-01T10:48:04;13.95;;;10.80;;
51578;SDS011;47998;53.242;6.386;2023-03-01T10:50:30;12.35;;;10.30;;
51578;SDS011;47998;53.242;6.386;2023-03-01T10:52:58;12.18;;;10.75;;
51578;SDS011;47998;53.242;6.386;2023-03-01T10:55:35;11.95;;;9.75;;
51578;SDS011;47998;53.242;6.386;2023-03-01T10:58:19;12.20;;;9.65;;
51578;SDS011;47998;53.242;6.386;2023-03-01T11:03:24;11.23;;;9.07;;
51578;SDS011;47998;53.242;6.386;2023-03-01T11:13:40;9.48;;;8.18;;
51578;SDS011;47998;53.242;6.386;2023-03-01T11:16:35;10.60;;;8.50;;
51578;SDS011;47998;53.242;6.386;2023-03-01T11:21:34;13.38;;;10.45;;
51578;SDS011;47998;53.242;6.386;2023-03-01T11:24:09;14.45;;;11.10;;
51578;SDS011;47998;53.242;6.386;2023-03-01T11:26:42;13.73;;;10.43;;
51578;SDS011;47998;53.242;6.386;2023-03-01T11:32:06;14.13;;;10.80;;
51578;SDS011;47998;53.242;6.386;2023-03-01T11:34:48;15.82;;;12.13;;
51578;SDS011;47998;53.242;6.386;2023-03-01T11:37:41;14.60;;;11.88;;
51578;SDS011;47998;53.242;6.386;2023-03-01T11:42:54;13.05;;;11.63;;
51578;SDS011;47998;53.242;6.386;2023-03-01T11:51:08;12.80;;;10.07;;
51578;SDS011;47998;53.242;6.386;2023-03-01T11:53:47;11.82;;;10.02;;
51578;SDS011;47998;53.242;6.386;2023-03-01T12:04:51;13.48;;;9.00;;
51578;SDS011;47998;53.242;6.386;2023-03-01T12:07:30;10.57;;;8.38;;
51578;SDS011;47998;53.242;6.386;2023-03-01T12:10:17;12.18;;;8.95;;
51578;SDS011;47998;53.242;6.386;2023-03-01T12:15:46;11.90;;;8.13;;
51578;SDS011;47998;53.242;6.386;2023-03-01T12:21:27;12.05;;;8.13;;
51578;SDS011;47998;53.242;6.386;2023-03-01T12:26:48;12.82;;;9.13;;
51578;SDS011;47998;53.242;6.386;2023-03-01T12:44:01;12.77;;;8.60;;
51578;SDS011;47998;53.242;6.386;2023-03-01T12:55:34;12.10;;;10.50;;
51578;SDS011;47998;53.242;6.386;2023-03-01T13:01:22;11.70;;;9.07;;
51578;SDS011;47998;53.242;6.386;2023-03-01T13:09:24;12.05;;;9.75;;
51578;SDS011;47998;53.242;6.386;2023-03-01T13:20:26;10.45;;;6.63;;
51578;SDS011;47998;53.242;6.386;2023-03-01T13:23:07;12.27;;;8.20;;
51578;SDS011;47998;53.242;6.386;2023-03-01T13:33:52;10.02;;;7.70;;
51578;SDS011;47998;53.242;6.386;2023-03-01T13:44:30;11.95;;;8.50;;
51578;SDS011;47998;53.242;6.386;2023-03-01T13:54:53;10.95;;;8.43;;
51578;SDS011;47998;53.242;6.386;2023-03-01T13:57:22;13.30;;;10.52;;
51578;SDS011;47998;53.242;6.386;2023-03-01T13:59:54;11.25;;;9.25;;
51578;SDS011;47998;53.242;6.386;2023-03-01T14:02:20;10.85;;;8.98;;
51578;SDS011;47998;53.242;6.386;2023-03-01T14:04:55;12.00;;;9.30;;
51578;SDS011;47998;53.242;6.386;2023-03-01T14:07:23;12.35;;;9.48;;
51578;SDS011;47998;53.242;6.386;2023-03-01T14:10:07;12.40;;;9.68;;
51578;SDS011;47998;53.242;6.386;2023-03-01T14:15:19;11.27;;;9.18;;
51578;SDS011;47998;53.242;6.386;2023-03-01T14:17:59;14.48;;;10.48;;
51578;SDS011;47998;53.242;6.386;2023-03-01T14:20:53;14.00;;;10.13;;
51578;SDS011;47998;53.242;6.386;2023-03-01T14:23:22;12.40;;;9.98;;
51578;SDS011;47998;53.242;6.386;2023-03-01T14:25:53;9.75;;;8.38;;
51578;SDS011;47998;53.242;6.386;2023-03-01T14:28:24;10.38;;;8.77;;
51578;SDS011;47998;53.242;6.386;2023-03-01T14:30:54;11.73;;;8.50;;
51578;SDS011;47998;53.242;6.386;2023-03-01T14:33:22;10.73;;;8.70;;
51578;SDS011;47998;53.242;6.386;2023-03-01T14:35:56;10.85;;;9.07;;
51578;SDS011;47998;53.242;6.386;2023-03-01T14:40:59;14.20;;;8.70;;
51578;SDS011;47998;53.242;6.386;2023-03-01T14:43:28;12.85;;;8.57;;
51578;SDS011;47998;53.242;6.386;2023-03-01T14:45:55;12.02;;;9.13;;
51578;SDS011;47998;53.242;6.386;2023-03-01T14:48:22;11.60;;;8.60;;
51578;SDS011;47998;53.242;6.386;2023-03-01T14:50:48;12.68;;;9.30;;
51578;SDS011;47998;53.242;6.386;2023-03-01T14:53:20;11.85;;;9.45;;
51578;SDS011;47998;53.242;6.386;2023-03-01T14:55:52;11.75;;;9.25;;
51578;SDS011;47998;53.242;6.386;2023-03-01T14:58:22;9.25;;;8.13;;
51578;SDS011;47998;53.242;6.386;2023-03-01T15:00:54;14.45;;;8.57;;
51578;SDS011;47998;53.242;6.386;2023-03-01T15:03:27;11.82;;;8.85;;
51578;SDS011;47998;53.242;6.386;2023-03-01T15:06:05;9.07;;;7.33;;
51578;SDS011;47998;53.242;6.386;2023-03-01T15:08:35;10.32;;;7.28;;
51578;SDS011;47998;53.242;6.386;2023-03-01T15:11:03;10.18;;;7.90;;
51578;SDS011;47998;53.242;6.386;2023-03-01T15:13:32;10.63;;;7.78;;
51578;SDS011;47998;53.242;6.386;2023-03-01T15:18:31;10.52;;;7.95;;
51578;SDS011;47998;53.242;6.386;2023-03-01T15:23:52;10.70;;;7.43;;
51578;SDS011;47998;53.242;6.386;2023-03-01T15:26:30;12.05;;;8.55;;
51578;SDS011;47998;53.242;6.386;2023-03-01T15:28:58;11.48;;;8.20;;
51578;SDS011;47998;53.242;6.386;2023-03-01T15:31:29;9.77;;;7.97;;
51578;SDS011;47998;53.242;6.386;2023-03-01T15:36:47;11.77;;;8.40;;
51578;SDS011;47998;53.242;6.386;2023-03-01T15:39:36;14.63;;;8.05;;
51578;SDS011;47998;53.242;6.386;2023-03-01T15:44:39;13.50;;;8.38;;
51578;SDS011;47998;53.242;6.386;2023-03-01T15:47:25;11.90;;;8.45;;
51578;SDS011;47998;53.242;6.386;2023-03-01T15:49:53;10.82;;;8.18;;
51578;SDS011;47998;53.242;6.386;2023-03-01T15:52:35;11.68;;;8.98;;
51578;SDS011;47998;53.242;6.386;2023-03-01T15:55:07;12.63;;;9.93;;
51578;SDS011;47998;53.242;6.386;2023-03-01T15:57:47;15.18;;;9.90;;
51578;SDS011;47998;53.242;6.386;2023-03-01T16:00:14;14.02;;;10.57;;
51578;SDS011;47998;53.242;6.386;2023-03-01T16:02:42;16.75;;;11.07;;
51578;SDS011;47998;53.242;6.386;2023-03-01T16:05:17;16.60;;;10.52;;
51578;SDS011;47998;53.242;6.386;2023-03-01T16:08:01;14.77;;;11.35;;
51578;SDS011;47998;53.242;6.386;2023-03-01T16:10:27;16.23;;;12.25;;
51578;SDS011;47998;53.242;6.386;2023-03-01T16:12:56;16.73;;;11.02;;
51578;SDS011;47998;53.242;6.386;2023-03-01T16:17:55;14.98;;;10.30;;
51578;SDS011;47998;53.242;6.386;2023-03-01T16:20:23;16.50;;;10.63;;
51578;SDS011;47998;53.242;6.386;2023-03-01T16:22:50;17.67;;;11.82;;
51578;SDS011;47998;53.242;6.386;2023-03-01T16:25:17;18.13;;;11.45;;
51578;SDS011;47998;53.242;6.386;2023-03-01T16:27:48;16.45;;;11.52;;
51578;SDS011;47998;53.242;6.386;2023-03-01T16:30:22;17.38;;;9.18;;
51578;SDS011;47998;53.242;6.386;2023-03-01T16:32:49;18.55;;;11.98;;
51578;SDS011;47998;53.242;6.386;2023-03-01T16:35:19;17.90;;;12.63;;
51578;SDS011;47998;53.242;6.386;2023-03-01T16:37:46;17.02;;;11.15;;
51578;SDS011;47998;53.242;6.386;2023-03-01T16:40:17;19.60;;;12.50;;
51578;SDS011;47998;53.242;6.386;2023-03-01T16:42:46;18.42;;;12.27;;
51578;SDS011;47998;53.242;6.386;2023-03-01T16:45:15;17.83;;;11.60;;
51578;SDS011;47998;53.242;6.386;2023-03-01T16:47:41;15.57;;;11.30;;
51578;SDS011;47998;53.242;6.386;2023-03-01T16:50:07;16.60;;;10.77;;
51578;SDS011;47998;53.242;6.386;2023-03-01T16:52:33;18.00;;;11.38;;
51578;SDS011;47998;53.242;6.386;2023-03-01T16:55:02;14.75;;;10.82;;
51578;SDS011;47998;53.242;6.386;2023-03-01T16:57:29;14.65;;;11.13;;
51578;SDS011;47998;53.242;6.386;2023-03-01T16:59:55;17.85;;;12.38;;
51578;SDS011;47998;53.242;6.386;2023-03-01T17:02:23;17.42;;;10.70;;
51578;SDS011;47998;53.242;6.386;2023-03-01T17:04:53;14.75;;;11.07;;
51578;SDS011;47998;53.242;6.386;2023-03-01T17:07:20;19.30;;;12.13;;
51578;SDS011;47998;53.242;6.386;2023-03-01T17:09:46;16.48;;;12.07;;
51578;SDS011;47998;53.242;6.386;2023-03-01T17:12:12;21.23;;;11.13;;
51578;SDS011;47998;53.242;6.386;2023-03-01T17:14:46;22.92;;;12.65;;
51578;SDS011;47998;53.242;6.386;2023-03-01T17:17:12;16.27;;;10.93;;
51578;SDS011;47998;53.242;6.386;2023-03-01T17:19:38;20.45;;;12.80;;
51578;SDS011;47998;53.242;6.386;2023-03-01T17:22:10;20.75;;;12.30;;